sensor_id;sensor_type;location;lat;lon;timestamp;P1;durP1;ratioP1;P2;durP2;ratioP2
76405;SDS011;65234;50.044;19.258;2022-12-07T00:00:03;33.92;;;32.08;;
76405;SDS011;65234;50.044;19.258;2022-12-07T00:02:49;34.03;;;32.38;;
76405;SDS011;65234;50.044;19.258;2022-12-07T00:05:15;33.25;;;31.67;;
76405;SDS011;65234;50.044;19.258;2022-12-07T00:07:41;35.42;;;33.67;;
76405;SDS011;65234;50.044;19.258;2022-12-07T00:10:07;34.13;;;32.22;;
76405;SDS011;65234;50.044;19.258;2022-12-07T00:12:33;35.97;;;34.22;;
76405;SDS011;65234;50.044;19.258;2022-12-07T00:15:00;37.33;;;34.25;;
76405;SDS011;65234;50.044;19.258;2022-12-07T00:17:25;34.78;;;32.78;;
76405;SDS011;65234;50.044;19.258;2022-12-07T00:19:51;34.60;;;32.90;;
76405;SDS011;65234;50.044;19.258;2022-12-07T00:22:17;34.80;;;32.97;;
76405;SDS011;65234;50.044;19.258;2022-12-07T00:24:42;34.80;;;32.95;;
76405;SDS011;65234;50.044;19.258;2022-12-07T00:27:08;33.63;;;31.98;;
76405;SDS011;65234;50.044;19.258;2022-12-07T00:29:34;34.13;;;32.53;;
76405;SDS011;65234;50.044;19.258;2022-12-07T00:32:01;35.40;;;33.58;;
76405;SDS011;65234;50.044;19.258;2022-12-07T00:34:27;35.22;;;33.03;;
76405;SDS011;65234;50.044;19.258;2022-12-07T00:36:52;36.25;;;34.33;;
76405;SDS011;65234;50.044;19.258;2022-12-07T00:39:18;37.22;;;34.85;;
76405;SDS011;65234;50.044;19.258;2022-12-07T00:41:43;37.22;;;34.92;;
76405;SDS011;65234;50.044;19.258;2022-12-07T00:44:09;37.67;;;35.53;;
76405;SDS011;65234;50.044;19.258;2022-12-07T00:46:35;35.47;;;33.60;;
76405;SDS011;65234;50.044;19.258;2022-12-07T00:49:02;36.75;;;34.13;;
76405;SDS011;65234;50.044;19.258;2022-12-07T00:51:28;35.65;;;32.78;;
76405;SDS011;65234;50.044;19.258;2022-12-07T00:53:54;35.88;;;33.95;;
76405;SDS011;65234;50.044;19.258;2022-12-07T00:56:21;37.33;;;35.20;;
76405;SDS011;65234;50.044;19.258;2022-12-07T00:58:51;34.40;;;32.72;;
76405;SDS011;65234;50.044;19.258;2022-12-07T01:01:18;34.88;;;33.17;;
76405;SDS011;65234;50.044;19.258;2022-12-07T01:03:44;36.22;;;34.28;;
76405;SDS011;65234;50.044;19.258;2022-12-07T01:06:13;36.38;;;34.53;;
76405;SDS011;65234;50.044;19.258;2022-12-07T01:08:39;37.72;;;35.35;;
76405;SDS011;65234;50.044;19.258;2022-12-07T01:11:05;37.25;;;35.40;;
76405;SDS011;65234;50.044;19.258;2022-12-07T01:13:33;34.65;;;32.95;;
76405;SDS011;65234;50.044;19.258;2022-12-07T01:16:00;33.67;;;31.73;;
76405;SDS011;65234;50.044;19.258;2022-12-07T01:18:29;38.53;;;36.38;;
76405;SDS011;65234;50.044;19.258;2022-12-07T01:20:59;38.80;;;36.47;;
76405;SDS011;65234;50.044;19.258;2022-12-07T01:23:28;35.85;;;33.53;;
76405;SDS011;65234;50.044;19.258;2022-12-07T01:25:55;33.75;;;31.98;;
76405;SDS011;65234;50.044;19.258;2022-12-07T01:28:21;36.78;;;34.88;;
76405;SDS011;65234;50.044;19.258;2022-12-07T01:30:54;38.88;;;36.80;;
76405;SDS011;65234;50.044;19.258;2022-12-07T01:35:46;35.20;;;33.00;;
76405;SDS011;65234;50.044;19.258;2022-12-07T01:38:11;37.00;;;34.65;;
76405;SDS011;65234;50.044;19.258;2022-12-07T01:40:38;35.63;;;33.63;;
76405;SDS011;65234;50.044;19.258;2022-12-07T01:43:04;35.35;;;33.42;;
76405;SDS011;65234;50.044;19.258;2022-12-07T01:45:40;35.85;;;33.95;;
76405;SDS011;65234;50.044;19.258;2022-12-07T01:48:06;32.75;;;31.15;;
76405;SDS011;65234;50.044;19.258;2022-12-07T01:50:35;37.22;;;35.13;;
76405;SDS011;65234;50.044;19.258;2022-12-07T01:53:04;35.78;;;33.97;;
76405;SDS011;65234;50.044;19.258;2022-12-07T01:55:34;36.25;;;34.17;;
76405;SDS011;65234;50.044;19.258;2022-12-07T01:58:04;36.65;;;34.65;;
76405;SDS011;65234;50.044;19.258;2022-12-07T02:00:30;37.50;;;35.70;;
76405;SDS011;65234;50.044;19.258;2022-12-07T02:02:58;38.20;;;36.13;;
76405;SDS011;65234;50.044;19.258;2022-12-07T02:05:29;37.90;;;35.78;;
76405;SDS011;65234;50.044;19.258;2022-12-07T02:07:56;39.03;;;36.40;;
76405;SDS011;65234;50.044;19.258;2022-12-07T02:10:23;36.25;;;34.45;;
76405;SDS011;65234;50.044;19.258;2022-12-07T02:12:51;35.35;;;33.15;;
76405;SDS011;65234;50.044;19.258;2022-12-07T02:15:23;38.67;;;36.58;;
76405;SDS011;65234;50.044;19.258;2022-12-07T02:17:55;39.08;;;36.88;;
76405;SDS011;65234;50.044;19.258;2022-12-07T02:20:30;37.38;;;35.45;;
76405;SDS011;65234;50.044;19.258;2022-12-07T02:23:23;39.00;;;36.75;;
76405;SDS011;65234;50.044;19.258;2022-12-07T02:29:23;40.67;;;37.95;;
76405;SDS011;65234;50.044;19.258;2022-12-07T02:31:55;38.72;;;36.17;;
76405;SDS011;65234;50.044;19.258;2022-12-07T02:34:30;39.78;;;37.42;;
76405;SDS011;65234;50.044;19.258;2022-12-07T02:37:03;41.70;;;39.28;;
76405;SDS011;65234;50.044;19.258;2022-12-07T02:39:37;39.53;;;37.42;;
76405;SDS011;65234;50.044;19.258;2022-12-07T02:42:10;39.05;;;37.03;;
76405;SDS011;65234;50.044;19.258;2022-12-07T02:44:42;39.10;;;36.78;;
76405;SDS011;65234;50.044;19.258;2022-12-07T02:47:11;39.10;;;37.00;;
76405;SDS011;65234;50.044;19.258;2022-12-07T02:49:40;42.22;;;39.72;;
76405;SDS011;65234;50.044;19.258;2022-12-07T02:52:06;39.30;;;37.13;;
76405;SDS011;65234;50.044;19.258;2022-12-07T02:54:32;39.58;;;37.30;;
76405;SDS011;65234;50.044;19.258;2022-12-07T02:56:59;40.40;;;37.67;;
76405;SDS011;65234;50.044;19.258;2022-12-07T02:59:33;37.58;;;35.58;;
76405;SDS011;65234;50.044;19.258;2022-12-07T03:02:13;37.13;;;35.22;;
76405;SDS011;65234;50.044;19.258;2022-12-07T03:04:47;40.63;;;38.13;;
76405;SDS011;65234;50.044;19.258;2022-12-07T03:07:26;39.38;;;37.38;;
76405;SDS011;65234;50.044;19.258;2022-12-07T03:10:00;41.28;;;38.83;;
76405;SDS011;65234;50.044;19.258;2022-12-07T03:12:29;39.88;;;37.70;;
76405;SDS011;65234;50.044;19.258;2022-12-07T03:15:04;40.83;;;38.17;;
76405;SDS011;65234;50.044;19.258;2022-12-07T03:17:35;40.20;;;37.92;;
76405;SDS011;65234;50.044;19.258;2022-12-07T03:20:06;39.00;;;36.78;;
76405;SDS011;65234;50.044;19.258;2022-12-07T03:22:34;40.13;;;37.70;;
76405;SDS011;65234;50.044;19.258;2022-12-07T03:25:04;40.85;;;38.25;;
76405;SDS011;65234;50.044;19.258;2022-12-07T03:27:34;44.15;;;40.95;;
76405;SDS011;65234;50.044;19.258;2022-12-07T03:30:05;38.53;;;36.25;;
76405;SDS011;65234;50.044;19.258;2022-12-07T03:32:37;38.78;;;36.45;;
76405;SDS011;65234;50.044;19.258;2022-12-07T03:35:07;39.47;;;37.33;;
76405;SDS011;65234;50.044;19.258;2022-12-07T03:37:38;38.45;;;36.38;;
76405;SDS011;65234;50.044;19.258;2022-12-07T03:40:11;39.25;;;37.03;;
76405;SDS011;65234;50.044;19.258;2022-12-07T03:42:41;38.53;;;36.45;;
76405;SDS011;65234;50.044;19.258;2022-12-07T03:45:08;40.42;;;38.28;;
76405;SDS011;65234;50.044;19.258;2022-12-07T03:47:37;40.70;;;37.83;;
76405;SDS011;65234;50.044;19.258;2022-12-07T03:50:11;43.42;;;40.72;;
76405;SDS011;65234;50.044;19.258;2022-12-07T03:52:43;41.17;;;38.67;;
76405;SDS011;65234;50.044;19.258;2022-12-07T03:55:14;38.78;;;36.88;;
76405;SDS011;65234;50.044;19.258;2022-12-07T03:57:44;40.45;;;38.30;;
76405;SDS011;65234;50.044;19.258;2022-12-07T04:00:12;39.75;;;37.55;;
76405;SDS011;65234;50.044;19.258;2022-12-07T04:02:40;41.65;;;38.65;;
76405;SDS011;65234;50.044;19.258;2022-12-07T04:05:07;41.53;;;38.90;;
76405;SDS011;65234;50.044;19.258;2022-12-07T04:07:33;40.72;;;38.30;;
76405;SDS011;65234;50.044;19.258;2022-12-07T04:09:59;42.45;;;39.90;;
76405;SDS011;65234;50.044;19.258;2022-12-07T04:12:25;40.97;;;38.67;;
76405;SDS011;65234;50.044;19.258;2022-12-07T04:14:51;43.42;;;40.17;;
76405;SDS011;65234;50.044;19.258;2022-12-07T04:17:16;40.55;;;38.08;;
76405;SDS011;65234;50.044;19.258;2022-12-07T04:19:44;40.88;;;38.50;;
76405;SDS011;65234;50.044;19.258;2022-12-07T04:22:09;38.97;;;36.97;;
76405;SDS011;65234;50.044;19.258;2022-12-07T04:24:35;40.17;;;37.70;;
76405;SDS011;65234;50.044;19.258;2022-12-07T04:27:01;39.83;;;37.40;;
76405;SDS011;65234;50.044;19.258;2022-12-07T04:29:27;39.80;;;37.30;;
76405;SDS011;65234;50.044;19.258;2022-12-07T04:31:53;42.88;;;40.20;;
76405;SDS011;65234;50.044;19.258;2022-12-07T04:34:19;44.33;;;41.78;;
76405;SDS011;65234;50.044;19.258;2022-12-07T04:36:46;37.67;;;35.30;;
76405;SDS011;65234;50.044;19.258;2022-12-07T04:39:14;43.92;;;40.28;;
76405;SDS011;65234;50.044;19.258;2022-12-07T04:41:43;37.53;;;35.17;;
76405;SDS011;65234;50.044;19.258;2022-12-07T04:44:09;38.88;;;36.35;;
76405;SDS011;65234;50.044;19.258;2022-12-07T04:46:37;41.20;;;38.85;;
76405;SDS011;65234;50.044;19.258;2022-12-07T04:49:02;36.78;;;34.47;;
76405;SDS011;65234;50.044;19.258;2022-12-07T04:51:28;39.33;;;37.17;;
76405;SDS011;65234;50.044;19.258;2022-12-07T04:53:56;37.67;;;35.78;;
76405;SDS011;65234;50.044;19.258;2022-12-07T04:56:22;37.88;;;35.47;;
76405;SDS011;65234;50.044;19.258;2022-12-07T04:58:48;35.70;;;33.88;;
76405;SDS011;65234;50.044;19.258;2022-12-07T05:01:15;37.40;;;35.50;;
76405;SDS011;65234;50.044;19.258;2022-12-07T05:03:42;39.92;;;37.70;;
76405;SDS011;65234;50.044;19.258;2022-12-07T05:06:07;35.45;;;33.67;;
76405;SDS011;65234;50.044;19.258;2022-12-07T05:08:34;38.33;;;35.97;;
76405;SDS011;65234;50.044;19.258;2022-12-07T05:11:02;39.33;;;36.95;;
76405;SDS011;65234;50.044;19.258;2022-12-07T05:13:28;37.17;;;34.95;;
76405;SDS011;65234;50.044;19.258;2022-12-07T05:15:54;36.85;;;34.67;;
76405;SDS011;65234;50.044;19.258;2022-12-07T05:18:20;37.85;;;35.65;;
76405;SDS011;65234;50.044;19.258;2022-12-07T05:20:51;38.92;;;36.25;;
76405;SDS011;65234;50.044;19.258;2022-12-07T05:23:17;35.35;;;33.15;;
76405;SDS011;65234;50.044;19.258;2022-12-07T05:25:43;36.88;;;34.28;;
76405;SDS011;65234;50.044;19.258;2022-12-07T05:28:10;36.08;;;34.28;;
76405;SDS011;65234;50.044;19.258;2022-12-07T05:30:36;37.05;;;34.80;;
76405;SDS011;65234;50.044;19.258;2022-12-07T05:33:02;35.22;;;33.22;;
76405;SDS011;65234;50.044;19.258;2022-12-07T05:35:28;34.60;;;32.42;;
76405;SDS011;65234;50.044;19.258;2022-12-07T05:37:54;37.65;;;35.47;;
76405;SDS011;65234;50.044;19.258;2022-12-07T05:40:20;36.60;;;34.45;;
76405;SDS011;65234;50.044;19.258;2022-12-07T05:42:45;36.08;;;34.08;;
76405;SDS011;65234;50.044;19.258;2022-12-07T05:45:12;34.38;;;32.63;;
76405;SDS011;65234;50.044;19.258;2022-12-07T05:47:38;36.33;;;34.53;;
76405;SDS011;65234;50.044;19.258;2022-12-07T05:50:04;36.47;;;34.38;;
76405;SDS011;65234;50.044;19.258;2022-12-07T05:52:31;36.20;;;34.22;;
76405;SDS011;65234;50.044;19.258;2022-12-07T05:54:57;34.53;;;32.78;;
76405;SDS011;65234;50.044;19.258;2022-12-07T05:57:23;35.85;;;33.72;;
76405;SDS011;65234;50.044;19.258;2022-12-07T05:59:49;38.63;;;36.10;;
76405;SDS011;65234;50.044;19.258;2022-12-07T06:02:16;36.55;;;34.63;;
76405;SDS011;65234;50.044;19.258;2022-12-07T06:04:42;37.40;;;35.03;;
76405;SDS011;65234;50.044;19.258;2022-12-07T06:07:09;36.88;;;34.75;;
76405;SDS011;65234;50.044;19.258;2022-12-07T06:09:37;35.50;;;33.00;;
76405;SDS011;65234;50.044;19.258;2022-12-07T06:12:04;34.97;;;33.15;;
76405;SDS011;65234;50.044;19.258;2022-12-07T06:14:30;36.50;;;34.17;;
76405;SDS011;65234;50.044;19.258;2022-12-07T06:16:56;35.40;;;33.25;;
76405;SDS011;65234;50.044;19.258;2022-12-07T06:19:23;38.47;;;36.28;;
76405;SDS011;65234;50.044;19.258;2022-12-07T06:21:49;34.20;;;32.28;;
76405;SDS011;65234;50.044;19.258;2022-12-07T06:24:15;35.75;;;33.95;;
76405;SDS011;65234;50.044;19.258;2022-12-07T06:26:42;35.58;;;33.50;;
76405;SDS011;65234;50.044;19.258;2022-12-07T06:29:07;34.08;;;32.05;;
76405;SDS011;65234;50.044;19.258;2022-12-07T06:31:34;38.65;;;35.45;;
76405;SDS011;65234;50.044;19.258;2022-12-07T06:34:00;36.25;;;34.30;;
76405;SDS011;65234;50.044;19.258;2022-12-07T06:36:30;36.63;;;34.50;;
76405;SDS011;65234;50.044;19.258;2022-12-07T06:38:55;36.63;;;34.22;;
76405;SDS011;65234;50.044;19.258;2022-12-07T06:41:22;36.40;;;34.20;;
76405;SDS011;65234;50.044;19.258;2022-12-07T06:43:48;36.40;;;34.53;;
76405;SDS011;65234;50.044;19.258;2022-12-07T06:46:14;34.13;;;32.00;;
76405;SDS011;65234;50.044;19.258;2022-12-07T06:48:40;36.30;;;34.15;;
76405;SDS011;65234;50.044;19.258;2022-12-07T06:51:06;36.63;;;34.70;;
76405;SDS011;65234;50.044;19.258;2022-12-07T06:53:33;37.00;;;34.75;;
76405;SDS011;65234;50.044;19.258;2022-12-07T06:56:01;36.00;;;33.80;;
76405;SDS011;65234;50.044;19.258;2022-12-07T06:58:27;34.63;;;32.63;;
76405;SDS011;65234;50.044;19.258;2022-12-07T07:00:53;36.03;;;33.45;;
76405;SDS011;65234;50.044;19.258;2022-12-07T07:03:18;32.08;;;30.38;;
76405;SDS011;65234;50.044;19.258;2022-12-07T07:05:44;34.03;;;32.17;;
76405;SDS011;65234;50.044;19.258;2022-12-07T07:08:10;35.85;;;33.85;;
76405;SDS011;65234;50.044;19.258;2022-12-07T07:10:38;36.15;;;33.80;;
76405;SDS011;65234;50.044;19.258;2022-12-07T07:13:04;29.63;;;28.23;;
76405;SDS011;65234;50.044;19.258;2022-12-07T07:15:30;36.45;;;34.17;;
76405;SDS011;65234;50.044;19.258;2022-12-07T07:17:56;36.92;;;34.17;;
76405;SDS011;65234;50.044;19.258;2022-12-07T07:20:22;33.38;;;31.73;;
76405;SDS011;65234;50.044;19.258;2022-12-07T07:22:48;35.08;;;33.17;;
76405;SDS011;65234;50.044;19.258;2022-12-07T07:25:14;34.10;;;32.35;;
76405;SDS011;65234;50.044;19.258;2022-12-07T07:27:41;35.72;;;33.45;;
76405;SDS011;65234;50.044;19.258;2022-12-07T07:30:08;34.38;;;32.50;;
76405;SDS011;65234;50.044;19.258;2022-12-07T07:32:34;35.83;;;33.40;;
76405;SDS011;65234;50.044;19.258;2022-12-07T07:35:00;34.80;;;32.95;;
76405;SDS011;65234;50.044;19.258;2022-12-07T07:37:25;37.03;;;34.70;;
76405;SDS011;65234;50.044;19.258;2022-12-07T07:39:51;37.55;;;35.53;;
76405;SDS011;65234;50.044;19.258;2022-12-07T07:42:17;34.75;;;32.45;;
76405;SDS011;65234;50.044;19.258;2022-12-07T07:44:44;36.90;;;34.63;;
76405;SDS011;65234;50.044;19.258;2022-12-07T07:47:10;37.47;;;35.05;;
76405;SDS011;65234;50.044;19.258;2022-12-07T07:49:36;35.38;;;33.53;;
76405;SDS011;65234;50.044;19.258;2022-12-07T07:52:01;33.20;;;31.42;;
76405;SDS011;65234;50.044;19.258;2022-12-07T07:54:27;34.67;;;32.88;;
76405;SDS011;65234;50.044;19.258;2022-12-07T07:56:52;35.78;;;33.92;;
76405;SDS011;65234;50.044;19.258;2022-12-07T07:59:18;35.97;;;33.63;;
76405;SDS011;65234;50.044;19.258;2022-12-07T08:01:45;36.35;;;34.28;;
76405;SDS011;65234;50.044;19.258;2022-12-07T08:04:11;34.65;;;32.75;;
76405;SDS011;65234;50.044;19.258;2022-12-07T08:06:37;34.38;;;32.50;;
76405;SDS011;65234;50.044;19.258;2022-12-07T08:09:02;32.65;;;30.75;;
76405;SDS011;65234;50.044;19.258;2022-12-07T08:11:28;33.70;;;31.90;;
76405;SDS011;65234;50.044;19.258;2022-12-07T08:13:54;34.47;;;32.33;;
76405;SDS011;65234;50.044;19.258;2022-12-07T08:16:19;35.28;;;33.20;;
76405;SDS011;65234;50.044;19.258;2022-12-07T08:18:47;34.03;;;32.40;;
76405;SDS011;65234;50.044;19.258;2022-12-07T08:21:13;34.45;;;32.55;;
76405;SDS011;65234;50.044;19.258;2022-12-07T08:23:40;35.60;;;33.67;;
76405;SDS011;65234;50.044;19.258;2022-12-07T08:26:07;36.20;;;34.10;;
76405;SDS011;65234;50.044;19.258;2022-12-07T08:28:35;33.92;;;32.25;;
76405;SDS011;65234;50.044;19.258;2022-12-07T08:31:01;33.25;;;31.45;;
76405;SDS011;65234;50.044;19.258;2022-12-07T08:33:28;34.80;;;32.65;;
76405;SDS011;65234;50.044;19.258;2022-12-07T08:35:55;33.35;;;31.33;;
76405;SDS011;65234;50.044;19.258;2022-12-07T08:38:26;38.65;;;36.08;;
76405;SDS011;65234;50.044;19.258;2022-12-07T08:40:53;35.72;;;33.78;;
76405;SDS011;65234;50.044;19.258;2022-12-07T08:43:19;33.25;;;31.55;;
76405;SDS011;65234;50.044;19.258;2022-12-07T08:45:45;37.03;;;34.72;;
76405;SDS011;65234;50.044;19.258;2022-12-07T08:48:12;34.85;;;33.00;;
76405;SDS011;65234;50.044;19.258;2022-12-07T08:50:38;38.40;;;36.13;;
76405;SDS011;65234;50.044;19.258;2022-12-07T08:53:06;37.45;;;35.45;;
76405;SDS011;65234;50.044;19.258;2022-12-07T08:55:32;36.40;;;34.30;;
76405;SDS011;65234;50.044;19.258;2022-12-07T08:57:59;40.20;;;37.83;;
76405;SDS011;65234;50.044;19.258;2022-12-07T09:00:26;38.67;;;36.30;;
76405;SDS011;65234;50.044;19.258;2022-12-07T09:02:52;38.80;;;36.33;;
76405;SDS011;65234;50.044;19.258;2022-12-07T09:05:18;43.30;;;40.13;;
76405;SDS011;65234;50.044;19.258;2022-12-07T09:07:45;40.58;;;37.85;;
76405;SDS011;65234;50.044;19.258;2022-12-07T09:10:15;38.03;;;35.78;;
76405;SDS011;65234;50.044;19.258;2022-12-07T09:12:41;37.50;;;35.00;;
76405;SDS011;65234;50.044;19.258;2022-12-07T09:15:07;39.55;;;37.40;;
76405;SDS011;65234;50.044;19.258;2022-12-07T09:17:33;38.65;;;36.38;;
76405;SDS011;65234;50.044;19.258;2022-12-07T09:19:59;39.42;;;37.00;;
76405;SDS011;65234;50.044;19.258;2022-12-07T09:22:27;40.88;;;38.60;;
76405;SDS011;65234;50.044;19.258;2022-12-07T09:24:53;39.25;;;37.13;;
76405;SDS011;65234;50.044;19.258;2022-12-07T09:27:21;38.10;;;36.05;;
76405;SDS011;65234;50.044;19.258;2022-12-07T09:29:46;38.92;;;36.83;;
76405;SDS011;65234;50.044;19.258;2022-12-07T09:32:12;39.47;;;37.47;;
76405;SDS011;65234;50.044;19.258;2022-12-07T09:34:37;39.65;;;37.42;;
76405;SDS011;65234;50.044;19.258;2022-12-07T09:37:04;40.03;;;38.03;;
76405;SDS011;65234;50.044;19.258;2022-12-07T09:39:29;40.13;;;38.13;;
76405;SDS011;65234;50.044;19.258;2022-12-07T09:41:56;40.05;;;37.83;;
76405;SDS011;65234;50.044;19.258;2022-12-07T09:44:24;41.60;;;39.13;;
76405;SDS011;65234;50.044;19.258;2022-12-07T09:46:51;39.55;;;37.25;;
76405;SDS011;65234;50.044;19.258;2022-12-07T09:49:18;39.30;;;37.28;;
76405;SDS011;65234;50.044;19.258;2022-12-07T09:51:46;37.92;;;36.13;;
76405;SDS011;65234;50.044;19.258;2022-12-07T09:54:12;39.38;;;37.08;;
76405;SDS011;65234;50.044;19.258;2022-12-07T09:56:39;39.13;;;37.15;;
76405;SDS011;65234;50.044;19.258;2022-12-07T09:59:05;40.80;;;38.47;;
76405;SDS011;65234;50.044;19.258;2022-12-07T10:01:33;38.40;;;36.38;;
76405;SDS011;65234;50.044;19.258;2022-12-07T10:04:00;39.75;;;37.50;;
76405;SDS011;65234;50.044;19.258;2022-12-07T10:06:34;37.63;;;35.80;;
76405;SDS011;65234;50.044;19.258;2022-12-07T10:08:59;40.03;;;37.83;;
76405;SDS011;65234;50.044;19.258;2022-12-07T10:11:25;41.10;;;38.83;;
76405;SDS011;65234;50.044;19.258;2022-12-07T10:13:51;37.88;;;35.88;;
76405;SDS011;65234;50.044;19.258;2022-12-07T10:19:19;39.67;;;37.72;;
76405;SDS011;65234;50.044;19.258;2022-12-07T10:21:59;39.60;;;37.22;;
76405;SDS011;65234;50.044;19.258;2022-12-07T10:24:26;39.13;;;37.05;;
76405;SDS011;65234;50.044;19.258;2022-12-07T10:26:53;40.45;;;38.28;;
76405;SDS011;65234;50.044;19.258;2022-12-07T10:29:21;40.00;;;37.92;;
76405;SDS011;65234;50.044;19.258;2022-12-07T10:31:51;40.30;;;37.83;;
76405;SDS011;65234;50.044;19.258;2022-12-07T10:34:21;40.95;;;38.75;;
76405;SDS011;65234;50.044;19.258;2022-12-07T10:36:49;39.58;;;37.67;;
76405;SDS011;65234;50.044;19.258;2022-12-07T10:39:16;39.47;;;37.28;;
76405;SDS011;65234;50.044;19.258;2022-12-07T10:41:53;39.97;;;38.08;;
76405;SDS011;65234;50.044;19.258;2022-12-07T10:44:20;41.08;;;39.00;;
76405;SDS011;65234;50.044;19.258;2022-12-07T10:46:53;42.63;;;40.45;;
76405;SDS011;65234;50.044;19.258;2022-12-07T10:49:47;41.55;;;39.28;;
76405;SDS011;65234;50.044;19.258;2022-12-07T10:52:35;41.78;;;39.50;;
76405;SDS011;65234;50.044;19.258;2022-12-07T10:55:14;41.70;;;39.65;;
76405;SDS011;65234;50.044;19.258;2022-12-07T10:57:51;42.35;;;40.25;;
76405;SDS011;65234;50.044;19.258;2022-12-07T11:00:26;40.38;;;38.08;;
76405;SDS011;65234;50.044;19.258;2022-12-07T11:03:05;43.22;;;40.75;;
76405;SDS011;65234;50.044;19.258;2022-12-07T11:05:48;42.53;;;40.53;;
76405;SDS011;65234;50.044;19.258;2022-12-07T11:08:21;43.15;;;40.97;;
76405;SDS011;65234;50.044;19.258;2022-12-07T11:10:57;42.90;;;40.50;;
76405;SDS011;65234;50.044;19.258;2022-12-07T11:13:34;42.38;;;40.28;;
76405;SDS011;65234;50.044;19.258;2022-12-07T11:16:13;44.10;;;40.90;;
76405;SDS011;65234;50.044;19.258;2022-12-07T11:18:48;41.30;;;39.17;;
76405;SDS011;65234;50.044;19.258;2022-12-07T11:21:23;44.17;;;41.53;;
76405;SDS011;65234;50.044;19.258;2022-12-07T11:23:56;42.75;;;40.40;;
76405;SDS011;65234;50.044;19.258;2022-12-07T11:26:32;42.38;;;40.25;;
76405;SDS011;65234;50.044;19.258;2022-12-07T11:29:15;42.30;;;39.55;;
76405;SDS011;65234;50.044;19.258;2022-12-07T11:31:55;44.28;;;41.67;;
76405;SDS011;65234;50.044;19.258;2022-12-07T11:34:33;43.00;;;40.70;;
76405;SDS011;65234;50.044;19.258;2022-12-07T11:37:05;42.05;;;39.95;;
76405;SDS011;65234;50.044;19.258;2022-12-07T11:39:39;40.17;;;38.28;;
76405;SDS011;65234;50.044;19.258;2022-12-07T11:42:11;44.15;;;41.70;;
76405;SDS011;65234;50.044;19.258;2022-12-07T11:44:44;41.00;;;38.92;;
76405;SDS011;65234;50.044;19.258;2022-12-07T11:47:16;41.60;;;39.60;;
76405;SDS011;65234;50.044;19.258;2022-12-07T11:49:50;43.10;;;41.00;;
76405;SDS011;65234;50.044;19.258;2022-12-07T11:52:20;42.90;;;40.38;;
76405;SDS011;65234;50.044;19.258;2022-12-07T11:54:51;41.55;;;39.25;;
76405;SDS011;65234;50.044;19.258;2022-12-07T11:57:20;42.70;;;40.63;;
76405;SDS011;65234;50.044;19.258;2022-12-07T11:59:52;44.65;;;41.85;;
76405;SDS011;65234;50.044;19.258;2022-12-07T12:02:22;41.45;;;39.45;;
76405;SDS011;65234;50.044;19.258;2022-12-07T12:04:55;44.75;;;42.05;;
76405;SDS011;65234;50.044;19.258;2022-12-07T12:07:27;43.03;;;40.92;;
76405;SDS011;65234;50.044;19.258;2022-12-07T12:09:54;41.20;;;39.20;;
76405;SDS011;65234;50.044;19.258;2022-12-07T12:12:30;42.08;;;39.97;;
76405;SDS011;65234;50.044;19.258;2022-12-07T12:15:19;44.10;;;41.70;;
76405;SDS011;65234;50.044;19.258;2022-12-07T12:18:10;38.33;;;36.42;;
76405;SDS011;65234;50.044;19.258;2022-12-07T12:20:53;40.92;;;38.83;;
76405;SDS011;65234;50.044;19.258;2022-12-07T12:23:23;41.80;;;39.70;;
76405;SDS011;65234;50.044;19.258;2022-12-07T12:25:53;43.05;;;40.95;;
76405;SDS011;65234;50.044;19.258;2022-12-07T12:28:24;42.63;;;40.50;;
76405;SDS011;65234;50.044;19.258;2022-12-07T12:31:05;42.25;;;39.95;;
76405;SDS011;65234;50.044;19.258;2022-12-07T12:33:34;42.00;;;39.90;;
76405;SDS011;65234;50.044;19.258;2022-12-07T12:36:18;45.45;;;42.80;;
76405;SDS011;65234;50.044;19.258;2022-12-07T12:38:51;41.65;;;39.70;;
76405;SDS011;65234;50.044;19.258;2022-12-07T12:47:52;44.53;;;41.95;;
76405;SDS011;65234;50.044;19.258;2022-12-07T12:50:20;42.55;;;40.53;;
76405;SDS011;65234;50.044;19.258;2022-12-07T12:52:56;43.13;;;40.72;;
76405;SDS011;65234;50.044;19.258;2022-12-07T12:55:49;41.03;;;38.85;;
76405;SDS011;65234;50.044;19.258;2022-12-07T12:58:36;43.92;;;41.60;;
76405;SDS011;65234;50.044;19.258;2022-12-07T13:04:21;41.88;;;39.78;;
76405;SDS011;65234;50.044;19.258;2022-12-07T13:06:50;43.90;;;41.45;;
76405;SDS011;65234;50.044;19.258;2022-12-07T13:09:19;42.28;;;40.28;;
76405;SDS011;65234;50.044;19.258;2022-12-07T13:11:47;41.63;;;39.60;;
76405;SDS011;65234;50.044;19.258;2022-12-07T13:23:24;40.63;;;38.35;;
76405;SDS011;65234;50.044;19.258;2022-12-07T13:26:12;43.95;;;41.80;;
76405;SDS011;65234;50.044;19.258;2022-12-07T13:28:40;43.83;;;41.65;;
76405;SDS011;65234;50.044;19.258;2022-12-07T13:31:13;42.92;;;40.53;;
76405;SDS011;65234;50.044;19.258;2022-12-07T13:33:45;44.22;;;41.72;;
76405;SDS011;65234;50.044;19.258;2022-12-07T13:36:14;42.13;;;39.67;;
76405;SDS011;65234;50.044;19.258;2022-12-07T13:38:56;42.80;;;40.67;;
76405;SDS011;65234;50.044;19.258;2022-12-07T13:43:52;42.83;;;40.33;;
76405;SDS011;65234;50.044;19.258;2022-12-07T13:46:25;41.75;;;39.55;;
76405;SDS011;65234;50.044;19.258;2022-12-07T13:48:57;43.38;;;41.15;;
76405;SDS011;65234;50.044;19.258;2022-12-07T13:51:24;41.25;;;39.20;;
76405;SDS011;65234;50.044;19.258;2022-12-07T13:53:51;43.92;;;41.38;;
76405;SDS011;65234;50.044;19.258;2022-12-07T13:56:20;42.78;;;40.67;;
76405;SDS011;65234;50.044;19.258;2022-12-07T13:58:49;42.60;;;40.50;;
76405;SDS011;65234;50.044;19.258;2022-12-07T14:01:15;41.75;;;39.60;;
76405;SDS011;65234;50.044;19.258;2022-12-07T14:03:40;42.15;;;39.97;;
76405;SDS011;65234;50.044;19.258;2022-12-07T14:06:12;42.40;;;39.13;;
76405;SDS011;65234;50.044;19.258;2022-12-07T14:11:07;35.63;;;33.78;;
76405;SDS011;65234;50.044;19.258;2022-12-07T14:13:38;38.85;;;36.75;;
76405;SDS011;65234;50.044;19.258;2022-12-07T14:16:23;38.10;;;36.15;;
76405;SDS011;65234;50.044;19.258;2022-12-07T14:18:51;39.80;;;37.40;;
76405;SDS011;65234;50.044;19.258;2022-12-07T14:21:18;37.33;;;35.55;;
76405;SDS011;65234;50.044;19.258;2022-12-07T14:23:47;38.22;;;36.10;;
76405;SDS011;65234;50.044;19.258;2022-12-07T14:26:33;38.33;;;36.25;;
76405;SDS011;65234;50.044;19.258;2022-12-07T14:31:58;37.00;;;35.13;;
76405;SDS011;65234;50.044;19.258;2022-12-07T14:34:52;38.65;;;36.65;;
76405;SDS011;65234;50.044;19.258;2022-12-07T14:37:18;41.47;;;38.85;;
76405;SDS011;65234;50.044;19.258;2022-12-07T14:39:44;41.15;;;38.83;;
76405;SDS011;65234;50.044;19.258;2022-12-07T14:42:10;41.60;;;39.08;;
76405;SDS011;65234;50.044;19.258;2022-12-07T14:44:35;40.72;;;38.45;;
76405;SDS011;65234;50.044;19.258;2022-12-07T14:47:03;42.75;;;40.05;;
76405;SDS011;65234;50.044;19.258;2022-12-07T14:49:28;42.45;;;39.42;;
76405;SDS011;65234;50.044;19.258;2022-12-07T14:51:54;35.83;;;33.92;;
76405;SDS011;65234;50.044;19.258;2022-12-07T14:54:20;43.08;;;40.67;;